createdAt,value
2022-12-24T00:03:19.223Z,9.50
2022-12-24T00:06:40.842Z,9.50
2022-12-24T00:10:03.943Z,9.50
2022-12-24T00:13:25.514Z,9.50
2022-12-24T00:16:47.074Z,9.50
2022-12-24T00:20:09.290Z,9.50
2022-12-24T00:23:30.858Z,9.60
2022-12-24T00:26:53.797Z,9.60
2022-12-24T00:30:15.445Z,9.60
2022-12-24T00:33:37.019Z,9.50
2022-12-24T00:36:58.580Z,9.50
2022-12-24T00:40:20.129Z,9.50
2022-12-24T00:43:43.010Z,9.50
2022-12-24T00:47:10.049Z,9.40
2022-12-24T00:50:33.634Z,9.40
2022-12-24T00:53:55.279Z,9.50
2022-12-24T00:57:16.822Z,9.50
2022-12-24T01:00:39.754Z,9.40
2022-12-24T01:04:01.318Z,9.40
2022-12-24T01:07:22.877Z,9.30
2022-12-24T01:10:44.419Z,9.30
2022-12-24T01:14:05.987Z,9.30
2022-12-24T01:17:30.787Z,9.30
2022-12-24T01:20:56.063Z,9.40
2022-12-24T01:24:17.617Z,9.40
2022-12-24T01:27:39.169Z,9.50
2022-12-24T01:31:00.838Z,9.50
2022-12-24T01:34:23.771Z,9.60
2022-12-24T01:37:45.326Z,9.70
2022-12-24T01:41:07.175Z,9.70
2022-12-24T01:44:36.189Z,9.70
2022-12-24T01:47:58.745Z,9.80
2022-12-24T01:51:24.340Z,9.80
2022-12-24T01:54:47.777Z,9.80
2022-12-24T01:58:10.807Z,9.80
2022-12-24T02:01:32.496Z,9.80
2022-12-24T02:04:56.929Z,9.80
2022-12-24T02:08:20.142Z,9.80
2022-12-24T02:11:42.349Z,9.70
2022-12-24T02:15:04.228Z,9.60
2022-12-24T02:18:31.526Z,9.70
2022-12-24T02:21:57.586Z,9.70
2022-12-24T02:25:32.936Z,9.70
2022-12-24T02:29:14.010Z,9.70
2022-12-24T02:32:42.394Z,9.60
2022-12-24T02:36:05.726Z,9.60
2022-12-24T02:39:28.510Z,9.50
2022-12-24T02:42:51.518Z,9.50
2022-12-24T02:46:14.278Z,9.40
2022-12-24T02:49:37.584Z,9.30
2022-12-24T02:52:59.131Z,9.20
2022-12-24T02:56:33.444Z,9.10
2022-12-24T02:59:59.268Z,9.10
2022-12-24T03:03:28.814Z,9.10
2022-12-24T03:06:56.831Z,9.20
2022-12-24T03:10:20.290Z,9.10
2022-12-24T03:13:42.151Z,9.10
2022-12-24T03:17:03.902Z,9.00
2022-12-24T03:20:26.683Z,9.00
2022-12-24T03:23:49.681Z,8.90
2022-12-24T03:27:12.026Z,8.90
2022-12-24T03:30:33.591Z,8.90
2022-12-24T03:33:55.264Z,8.90
2022-12-24T03:37:16.826Z,8.90
2022-12-24T03:40:39.760Z,8.90
2022-12-24T03:44:01.347Z,8.90
2022-12-24T03:47:22.878Z,9.00
2022-12-24T03:50:44.543Z,9.00
2022-12-24T03:54:06.078Z,9.00
2022-12-24T03:57:28.996Z,9.10
2022-12-24T04:00:50.574Z,9.00
2022-12-24T04:04:12.150Z,9.10
2022-12-24T04:07:34.091Z,9.10
2022-12-24T04:10:55.703Z,9.10
2022-12-24T04:14:18.638Z,9.10
2022-12-24T04:17:40.244Z,9.10
2022-12-24T04:21:01.837Z,9.20
2022-12-24T04:24:23.518Z,9.20
2022-12-24T04:27:45.081Z,9.30
2022-12-24T04:31:08.850Z,9.30
2022-12-24T04:34:30.489Z,9.30
2022-12-24T04:37:52.046Z,9.20
2022-12-24T04:41:20.720Z,9.20
2022-12-24T04:44:44.499Z,9.20
2022-12-24T04:48:07.397Z,9.20
2022-12-24T04:51:29.390Z,9.30
2022-12-24T04:54:50.937Z,9.40
2022-12-24T04:58:14.355Z,9.40
2022-12-24T05:01:35.938Z,9.40
2022-12-24T05:04:58.954Z,9.40
2022-12-24T05:08:20.504Z,9.40
2022-12-24T05:11:42.053Z,9.30
2022-12-24T05:15:03.830Z,9.30
2022-12-24T05:18:25.371Z,9.20
2022-12-24T05:21:48.273Z,9.20
2022-12-24T05:25:09.964Z,9.20
2022-12-24T05:28:31.496Z,9.20
2022-12-24T05:31:53.074Z,9.30
2022-12-24T05:35:14.784Z,9.30
2022-12-24T05:38:37.824Z,9.40
2022-12-24T05:41:59.403Z,9.30
2022-12-24T05:45:21.064Z,9.30
2022-12-24T05:48:42.640Z,9.30
2022-12-24T05:52:04.359Z,9.30
2022-12-24T05:55:27.393Z,9.20
2022-12-24T05:58:49.412Z,9.20
2022-12-24T06:02:11.007Z,9.20
2022-12-24T06:05:32.627Z,9.20
2022-12-24T06:08:54.749Z,9.10
2022-12-24T06:12:17.642Z,9.10
2022-12-24T06:15:39.183Z,9.10
2022-12-24T06:19:00.732Z,9.00
2022-12-24T06:22:22.296Z,8.90
2022-12-24T06:25:43.819Z,9.00
2022-12-24T06:29:06.697Z,9.00
2022-12-24T06:32:28.254Z,9.00
2022-12-24T06:35:49.818Z,8.90
2022-12-24T06:39:11.608Z,8.90
2022-12-24T06:42:33.160Z,8.90
2022-12-24T06:45:56.067Z,8.80
2022-12-24T06:49:17.635Z,8.80
2022-12-24T06:52:39.198Z,8.70
2022-12-24T06:56:01.313Z,8.70
2022-12-24T06:59:22.943Z,8.70
2022-12-24T07:02:45.890Z,8.70
2022-12-24T07:06:15.577Z,8.70
2022-12-24T07:09:37.115Z,8.80
2022-12-24T07:12:58.669Z,8.90
2022-12-24T07:16:20.386Z,8.90
2022-12-24T07:19:43.415Z,8.90
2022-12-24T07:23:04.973Z,8.90
2022-12-24T07:26:26.516Z,9.00
2022-12-24T07:29:48.064Z,9.00
2022-12-24T07:33:09.643Z,9.00
2022-12-24T07:36:32.554Z,9.00
2022-12-24T07:39:54.147Z,9.00
2022-12-24T07:43:15.678Z,9.00
2022-12-24T07:46:37.319Z,8.90
2022-12-24T07:49:58.884Z,8.90
2022-12-24T07:53:21.876Z,8.90
2022-12-24T07:56:43.462Z,8.90
2022-12-24T08:00:05.629Z,8.90
2022-12-24T08:03:27.520Z,8.90
2022-12-24T08:06:49.332Z,9.00
2022-12-24T08:10:12.280Z,9.00
2022-12-24T08:13:33.891Z,9.10
2022-12-24T08:16:55.539Z,9.20
2022-12-24T08:20:17.292Z,9.20
2022-12-24T08:23:38.843Z,9.20
2022-12-24T08:27:01.736Z,9.30
2022-12-24T08:30:23.328Z,9.40
2022-12-24T08:33:44.957Z,9.40
2022-12-24T08:37:06.582Z,9.50
2022-12-24T08:40:28.286Z,9.60
2022-12-24T08:43:51.206Z,9.70
2022-12-24T08:47:12.919Z,9.70
2022-12-24T08:50:34.769Z,9.70
2022-12-24T08:53:56.375Z,9.70
2022-12-24T08:57:17.945Z,9.70
2022-12-24T09:00:43.469Z,9.60
2022-12-24T09:04:05.244Z,9.60
2022-12-24T09:07:27.116Z,9.60
2022-12-24T09:10:48.693Z,9.60
2022-12-24T09:14:10.286Z,9.70
2022-12-24T09:17:33.258Z,9.80
2022-12-24T09:20:58.743Z,10.00
2022-12-24T09:24:20.377Z,10.10
2022-12-24T09:27:41.936Z,10.20
2022-12-24T09:31:04.111Z,10.30
2022-12-24T09:34:30.504Z,10.40
2022-12-24T09:37:52.303Z,10.40
2022-12-24T09:41:15.412Z,10.30
2022-12-24T09:44:42.082Z,10.30
2022-12-24T09:48:05.913Z,10.20
2022-12-24T09:51:32.036Z,10.10
2022-12-24T09:54:58.388Z,9.90
2022-12-24T09:58:22.133Z,9.80
2022-12-24T10:01:43.898Z,9.70
2022-12-24T10:05:09.916Z,9.60
2022-12-24T10:08:35.457Z,9.60
2022-12-24T10:12:01.072Z,9.60
2022-12-24T10:15:26.382Z,9.60
2022-12-24T10:18:52.407Z,9.80
2022-12-24T10:22:19.926Z,9.90
2022-12-24T10:25:47.775Z,9.90
2022-12-24T10:29:13.703Z,10.00
2022-12-24T10:32:35.456Z,10.10
2022-12-24T10:35:57.570Z,10.30
2022-12-24T10:39:20.209Z,10.40
2022-12-24T10:42:50.180Z,10.60
2022-12-24T10:46:16.457Z,10.70
2022-12-24T10:49:43.299Z,10.80
2022-12-24T10:53:06.970Z,10.90
2022-12-24T10:56:28.572Z,11.20
2022-12-24T10:59:52.415Z,11.40
2022-12-24T11:03:22.085Z,11.50
2022-12-24T11:06:51.818Z,11.60
2022-12-24T11:10:22.648Z,11.60
2022-12-24T11:13:45.431Z,11.40
2022-12-24T11:17:18.698Z,11.40
2022-12-24T11:20:40.928Z,11.30
2022-12-24T11:24:05.323Z,11.30
2022-12-24T11:27:31.377Z,11.20
2022-12-24T11:30:57.641Z,11.10
2022-12-24T11:34:27.568Z,11.10
2022-12-24T11:37:49.344Z,11.00
2022-12-24T11:41:11.900Z,11.00
2022-12-24T11:44:33.481Z,11.10
2022-12-24T11:47:55.429Z,11.20
2022-12-24T11:51:22.946Z,11.30
2022-12-24T11:54:48.402Z,11.50
2022-12-24T11:58:17.974Z,11.60
2022-12-24T12:01:42.077Z,11.70
2022-12-24T12:05:06.524Z,11.80
2022-12-24T12:08:30.210Z,12.00
2022-12-24T12:11:53.865Z,12.10
2022-12-24T12:15:17.402Z,12.20
2022-12-24T12:18:40.961Z,12.20
2022-12-24T12:22:05.116Z,12.20
2022-12-24T12:25:31.976Z,12.20
2022-12-24T12:28:54.639Z,12.20
2022-12-24T12:32:20.502Z,12.10
2022-12-24T12:35:43.035Z,12.10
2022-12-24T12:39:04.664Z,12.10
2022-12-24T12:42:30.565Z,12.30
2022-12-24T12:45:54.987Z,12.20
2022-12-24T12:49:25.254Z,12.10
2022-12-24T12:52:59.371Z,12.20
2022-12-24T12:56:30.450Z,12.00
2022-12-24T12:59:55.572Z,11.90
2022-12-24T13:03:30.029Z,11.80
2022-12-24T13:07:06.682Z,11.80
2022-12-24T13:10:58.309Z,11.90
2022-12-24T13:14:28.449Z,12.00
2022-12-24T13:17:58.885Z,12.10
2022-12-24T13:21:21.813Z,12.10
2022-12-24T13:24:51.453Z,12.10
2022-12-24T13:28:29.038Z,12.10
2022-12-24T13:31:50.632Z,11.80
2022-12-24T13:35:36.886Z,11.70
2022-12-24T13:39:00.398Z,11.60
2022-12-24T13:42:36.853Z,11.60
2022-12-24T13:45:58.455Z,11.40
2022-12-24T13:49:21.850Z,11.30
2022-12-24T13:52:50.092Z,11.10
2022-12-24T13:56:22.842Z,11.00
2022-12-24T13:59:44.549Z,10.90
2022-12-24T14:03:15.383Z,10.90
2022-12-24T14:06:38.584Z,10.90
2022-12-24T14:10:00.488Z,10.90
2022-12-24T14:13:40.966Z,11.00
2022-12-24T14:17:08.242Z,11.00
2022-12-24T14:20:31.321Z,11.00
2022-12-24T14:23:54.456Z,11.00
2022-12-24T14:27:17.671Z,10.90
2022-12-24T14:30:39.210Z,10.90
2022-12-24T14:34:09.079Z,10.90
2022-12-24T14:37:34.664Z,10.80
2022-12-24T14:41:00.590Z,10.80
2022-12-24T14:44:32.450Z,10.70
2022-12-24T14:48:02.479Z,10.70
2022-12-24T14:51:29.444Z,10.70
2022-12-24T14:54:51.005Z,10.70
2022-12-24T14:58:21.032Z,10.60
2022-12-24T15:01:42.722Z,10.50
2022-12-24T15:05:05.435Z,10.30
2022-12-24T15:08:32.548Z,10.20
2022-12-24T15:11:55.316Z,10.10
2022-12-24T15:15:17.556Z,10.00
2022-12-24T15:18:41.632Z,9.90
2022-12-24T15:22:04.029Z,9.80
2022-12-24T15:25:28.077Z,9.70
2022-12-24T15:28:50.041Z,9.70
2022-12-24T15:32:13.138Z,9.70
2022-12-24T15:35:48.077Z,9.70
2022-12-24T15:39:14.322Z,9.80
2022-12-24T15:42:41.334Z,9.80
2022-12-24T15:46:02.998Z,9.80
2022-12-24T15:49:25.199Z,9.80
2022-12-24T15:52:47.400Z,9.70
2022-12-24T15:56:10.388Z,9.60
2022-12-24T15:59:34.114Z,9.50
2022-12-24T16:02:55.756Z,9.50
2022-12-24T16:06:17.669Z,9.40
2022-12-24T16:09:40.814Z,9.40
2022-12-24T16:13:02.388Z,9.40
2022-12-24T16:16:32.090Z,9.40
2022-12-24T16:19:55.227Z,9.40
2022-12-24T16:23:18.191Z,9.30
2022-12-24T16:26:39.759Z,9.30
2022-12-24T16:30:01.336Z,9.30
2022-12-24T16:33:24.306Z,9.30
2022-12-24T16:36:46.440Z,9.30
2022-12-24T16:40:18.287Z,9.20
2022-12-24T16:43:42.304Z,9.20
2022-12-24T16:47:04.334Z,9.20
2022-12-24T16:50:27.329Z,9.10
2022-12-24T16:53:49.007Z,9.10
2022-12-24T16:57:11.804Z,9.10
2022-12-24T17:00:33.341Z,9.10
2022-12-24T17:03:54.969Z,9.10
2022-12-24T17:07:19.356Z,9.10
2022-12-24T17:10:40.944Z,9.00
2022-12-24T17:14:08.128Z,9.00
2022-12-24T17:17:30.745Z,9.00
2022-12-24T17:20:59.019Z,9.10
2022-12-24T17:24:21.946Z,9.20
2022-12-24T17:27:43.550Z,9.30
2022-12-24T17:31:06.469Z,9.40
2022-12-24T17:34:28.113Z,9.50
2022-12-24T17:37:49.653Z,9.60
2022-12-24T17:41:13.248Z,9.60
2022-12-24T17:44:34.941Z,9.60
2022-12-24T17:47:56.525Z,9.60
2022-12-24T17:51:19.112Z,9.50
2022-12-24T17:54:40.764Z,9.50
2022-12-24T17:58:03.701Z,9.50
2022-12-24T18:01:26.366Z,9.50
2022-12-24T18:04:48.504Z,9.50
2022-12-24T18:08:10.075Z,9.50
2022-12-24T18:11:32.841Z,9.40
2022-12-24T18:14:55.987Z,9.50
2022-12-24T18:18:17.572Z,9.40
2022-12-24T18:21:39.436Z,9.40
2022-12-24T18:25:00.979Z,9.40
2022-12-24T18:28:22.525Z,9.40
2022-12-24T18:31:45.896Z,9.30
2022-12-24T18:35:07.800Z,9.30
2022-12-24T18:38:29.636Z,9.30
2022-12-24T18:41:51.249Z,9.40
2022-12-24T18:45:12.916Z,9.30
2022-12-24T18:48:37.048Z,9.30
2022-12-24T18:51:58.709Z,9.30
2022-12-24T18:55:20.301Z,9.30
2022-12-24T18:58:42.119Z,9.30
2022-12-24T19:02:03.825Z,9.30
2022-12-24T19:05:26.807Z,9.30
2022-12-24T19:08:58.633Z,9.30
2022-12-24T19:12:21.040Z,9.20
2022-12-24T19:15:42.747Z,9.20
2022-12-24T19:19:04.952Z,9.10
2022-12-24T19:22:27.875Z,9.10
2022-12-24T19:25:49.460Z,9.10
2022-12-24T19:29:11.042Z,9.20
2022-12-24T19:32:32.604Z,9.20
2022-12-24T19:35:54.277Z,9.10
2022-12-24T19:39:17.205Z,9.10
2022-12-24T19:42:38.793Z,9.10
2022-12-24T19:46:00.461Z,9.10
2022-12-24T19:49:22.153Z,9.10
2022-12-24T19:52:44.124Z,9.00
2022-12-24T19:56:07.517Z,9.00
2022-12-24T19:59:29.070Z,9.00
2022-12-24T20:02:50.801Z,9.00
2022-12-24T20:06:12.628Z,9.00
2022-12-24T20:09:34.321Z,9.10
2022-12-24T20:13:00.918Z,9.10
2022-12-24T20:16:27.606Z,9.10
2022-12-24T20:19:49.182Z,9.20
2022-12-24T20:23:10.729Z,9.20
2022-12-24T20:26:32.725Z,9.20
2022-12-24T20:29:55.632Z,9.20
2022-12-24T20:33:17.190Z,9.20
2022-12-24T20:36:38.810Z,9.20
2022-12-24T20:40:00.358Z,9.20
2022-12-24T20:43:24.518Z,9.10
2022-12-24T20:46:47.629Z,9.10
2022-12-24T20:50:09.391Z,9.10
2022-12-24T20:53:30.942Z,9.10
2022-12-24T20:56:57.503Z,9.00
2022-12-24T21:00:20.972Z,9.00
2022-12-24T21:03:43.832Z,8.90
2022-12-24T21:07:05.385Z,8.90
2022-12-24T21:10:33.877Z,8.90
2022-12-24T21:13:55.934Z,8.90
2022-12-24T21:17:17.949Z,8.90
2022-12-24T21:20:41.150Z,8.90
2022-12-24T21:24:03.328Z,8.80
2022-12-24T21:27:24.913Z,8.80
2022-12-24T21:30:46.491Z,8.80
2022-12-24T21:34:08.065Z,8.80
2022-12-24T21:37:30.970Z,8.70
2022-12-24T21:40:59.026Z,8.70
2022-12-24T21:44:20.589Z,8.70
2022-12-24T21:47:42.144Z,8.70
2022-12-24T21:51:03.782Z,8.70
2022-12-24T21:54:26.808Z,8.80
2022-12-24T21:57:48.396Z,8.70
2022-12-24T22:01:10.538Z,8.70
2022-12-24T22:04:32.701Z,8.70
2022-12-24T22:07:54.625Z,8.70
2022-12-24T22:11:17.700Z,8.60
2022-12-24T22:14:39.443Z,8.60
2022-12-24T22:18:01.033Z,8.50
2022-12-24T22:21:22.955Z,8.50
2022-12-24T22:24:44.568Z,8.50
2022-12-24T22:28:07.700Z,8.50
2022-12-24T22:31:29.506Z,8.50
2022-12-24T22:34:51.158Z,8.40
2022-12-24T22:38:12.685Z,8.40
2022-12-24T22:41:34.241Z,8.30
2022-12-24T22:44:57.140Z,8.20
2022-12-24T22:48:18.681Z,8.10
2022-12-24T22:51:40.277Z,8.10
2022-12-24T22:55:02.368Z,8.00
2022-12-24T22:58:24.049Z,8.00
2022-12-24T23:01:47.741Z,8.00
2022-12-24T23:05:11.375Z,7.90
2022-12-24T23:08:33.355Z,7.90
2022-12-24T23:11:54.918Z,7.90
2022-12-24T23:15:16.558Z,7.90
2022-12-24T23:18:39.462Z,7.80
2022-12-24T23:22:01.509Z,7.80
2022-12-24T23:25:23.300Z,7.90
2022-12-24T23:28:44.980Z,7.90
2022-12-24T23:32:06.528Z,7.90
2022-12-24T23:35:29.395Z,7.80
2022-12-24T23:38:52.749Z,7.90
2022-12-24T23:42:14.276Z,7.80
2022-12-24T23:45:35.941Z,7.80
2022-12-24T23:48:57.504Z,7.80
2022-12-24T23:52:20.401Z,7.70
2022-12-24T23:55:42.487Z,7.80
2022-12-24T23:59:04.059Z,7.70
